sensor_id;sensor_type;location;lat;lon;timestamp;temperature;humidity
80676;SHT30;70041;46.088;18.268;2023-08-08T00:00:26;14.53;72.07
80676;SHT30;70041;46.088;18.268;2023-08-08T00:02:51;14.59;71.77
80676;SHT30;70041;46.088;18.268;2023-08-08T00:05:17;14.56;72.74
80676;SHT30;70041;46.088;18.268;2023-08-08T00:07:42;14.59;73.10
80676;SHT30;70041;46.088;18.268;2023-08-08T00:10:08;14.52;73.73
80676;SHT30;70041;46.088;18.268;2023-08-08T00:12:33;14.45;74.00
80676;SHT30;70041;46.088;18.268;2023-08-08T00:14:59;14.51;73.78
80676;SHT30;70041;46.088;18.268;2023-08-08T00:17:24;14.46;74.68
80676;SHT30;70041;46.088;18.268;2023-08-08T00:19:50;14.32;73.49
80676;SHT30;70041;46.088;18.268;2023-08-08T00:22:15;14.24;74.06
80676;SHT30;70041;46.088;18.268;2023-08-08T00:24:41;14.12;75.15
80676;SHT30;70041;46.088;18.268;2023-08-08T00:27:06;14.10;75.65
80676;SHT30;70041;46.088;18.268;2023-08-08T00:29:31;14.04;74.92
80676;SHT30;70041;46.088;18.268;2023-08-08T00:31:57;14.05;75.04
80676;SHT30;70041;46.088;18.268;2023-08-08T00:34:22;14.02;75.18
80676;SHT30;70041;46.088;18.268;2023-08-08T00:36:47;14.14;74.85
80676;SHT30;70041;46.088;18.268;2023-08-08T00:39:13;14.07;76.12
80676;SHT30;70041;46.088;18.268;2023-08-08T00:41:38;14.10;75.43
80676;SHT30;70041;46.088;18.268;2023-08-08T00:44:04;14.07;75.81
80676;SHT30;70041;46.088;18.268;2023-08-08T00:46:29;14.00;76.13
80676;SHT30;70041;46.088;18.268;2023-08-08T00:48:55;13.98;76.91
80676;SHT30;70041;46.088;18.268;2023-08-08T00:51:21;13.95;76.67
80676;SHT30;70041;46.088;18.268;2023-08-08T00:53:47;13.92;77.36
80676;SHT30;70041;46.088;18.268;2023-08-08T00:56:16;13.91;77.23
80676;SHT30;70041;46.088;18.268;2023-08-08T00:58:42;13.94;77.13
80676;SHT30;70041;46.088;18.268;2023-08-08T01:01:11;14.04;76.66
80676;SHT30;70041;46.088;18.268;2023-08-08T01:03:36;14.00;76.44
80676;SHT30;70041;46.088;18.268;2023-08-08T01:06:06;13.91;77.76
80676;SHT30;70041;46.088;18.268;2023-08-08T01:08:45;13.97;77.13
80676;SHT30;70041;46.088;18.268;2023-08-08T01:11:13;14.08;77.17
80676;SHT30;70041;46.088;18.268;2023-08-08T01:13:40;14.14;77.04
80676;SHT30;70041;46.088;18.268;2023-08-08T01:16:06;14.18;76.50
80676;SHT30;70041;46.088;18.268;2023-08-08T01:18:33;14.22;77.04
80676;SHT30;70041;46.088;18.268;2023-08-08T01:20:59;14.18;77.09
80676;SHT30;70041;46.088;18.268;2023-08-08T01:23:42;14.18;77.43
80676;SHT30;70041;46.088;18.268;2023-08-08T01:26:09;14.12;77.72
80676;SHT30;70041;46.088;18.268;2023-08-08T01:28:34;14.14;77.62
80676;SHT30;70041;46.088;18.268;2023-08-08T01:31:00;14.12;77.92
80676;SHT30;70041;46.088;18.268;2023-08-08T01:33:26;14.11;77.89
80676;SHT30;70041;46.088;18.268;2023-08-08T01:35:58;14.02;78.66
80676;SHT30;70041;46.088;18.268;2023-08-08T01:38:33;14.01;78.90
80676;SHT30;70041;46.088;18.268;2023-08-08T01:40:59;13.97;78.98
80676;SHT30;70041;46.088;18.268;2023-08-08T01:43:25;13.92;79.24
80676;SHT30;70041;46.088;18.268;2023-08-08T01:45:52;13.87;79.51
80676;SHT30;70041;46.088;18.268;2023-08-08T01:48:18;13.78;79.49
80676;SHT30;70041;46.088;18.268;2023-08-08T01:50:43;13.75;79.43
80676;SHT30;70041;46.088;18.268;2023-08-08T01:53:09;13.82;78.93
80676;SHT30;70041;46.088;18.268;2023-08-08T01:55:34;13.87;79.08
80676;SHT30;70041;46.088;18.268;2023-08-08T01:58:00;13.87;79.91
80676;SHT30;70041;46.088;18.268;2023-08-08T02:00:25;13.82;79.02
80676;SHT30;70041;46.088;18.268;2023-08-08T02:02:51;13.92;78.65
80676;SHT30;70041;46.088;18.268;2023-08-08T02:05:16;14.00;79.42
80676;SHT30;70041;46.088;18.268;2023-08-08T02:07:42;14.05;78.23
80676;SHT30;70041;46.088;18.268;2023-08-08T02:10:07;14.05;77.94
80676;SHT30;70041;46.088;18.268;2023-08-08T02:12:33;14.02;78.91
80676;SHT30;70041;46.088;18.268;2023-08-08T02:14:58;13.94;79.50
80676;SHT30;70041;46.088;18.268;2023-08-08T02:17:25;14.02;78.61
80676;SHT30;70041;46.088;18.268;2023-08-08T02:19:51;14.05;78.43
80676;SHT30;70041;46.088;18.268;2023-08-08T02:22:16;14.18;77.67
80676;SHT30;70041;46.088;18.268;2023-08-08T02:24:42;14.22;78.21
80676;SHT30;70041;46.088;18.268;2023-08-08T02:27:08;14.21;78.21
80676;SHT30;70041;46.088;18.268;2023-08-08T02:29:33;14.20;78.64
80676;SHT30;70041;46.088;18.268;2023-08-08T02:31:58;14.10;79.13
80676;SHT30;70041;46.088;18.268;2023-08-08T02:34:24;14.12;79.44
80676;SHT30;70041;46.088;18.268;2023-08-08T02:36:50;14.17;79.53
80676;SHT30;70041;46.088;18.268;2023-08-08T02:39:15;14.24;78.12
80676;SHT30;70041;46.088;18.268;2023-08-08T02:41:40;14.29;77.97
80676;SHT30;70041;46.088;18.268;2023-08-08T02:44:06;14.21;79.02
80676;SHT30;70041;46.088;18.268;2023-08-08T02:46:32;14.11;79.54
80676;SHT30;70041;46.088;18.268;2023-08-08T02:48:57;14.15;79.99
80676;SHT30;70041;46.088;18.268;2023-08-08T02:51:22;14.24;79.34
80676;SHT30;70041;46.088;18.268;2023-08-08T02:53:48;14.35;78.67
80676;SHT30;70041;46.088;18.268;2023-08-08T02:56:13;14.42;76.55
80676;SHT30;70041;46.088;18.268;2023-08-08T02:58:38;14.48;76.67
80676;SHT30;70041;46.088;18.268;2023-08-08T03:01:04;14.49;76.80
80676;SHT30;70041;46.088;18.268;2023-08-08T03:03:29;14.43;75.86
80676;SHT30;70041;46.088;18.268;2023-08-08T03:05:55;14.38;78.93
80676;SHT30;70041;46.088;18.268;2023-08-08T03:08:20;14.33;78.32
80676;SHT30;70041;46.088;18.268;2023-08-08T03:10:45;14.36;78.80
80676;SHT30;70041;46.088;18.268;2023-08-08T03:13:11;14.43;78.68
80676;SHT30;70041;46.088;18.268;2023-08-08T03:15:36;14.46;78.38
80676;SHT30;70041;46.088;18.268;2023-08-08T03:18:02;14.53;77.54
80676;SHT30;70041;46.088;18.268;2023-08-08T03:20:28;14.52;78.16
80676;SHT30;70041;46.088;18.268;2023-08-08T03:22:54;14.58;78.40
80676;SHT30;70041;46.088;18.268;2023-08-08T03:25:19;14.73;74.27
80676;SHT30;70041;46.088;18.268;2023-08-08T03:27:44;14.83;75.33
80676;SHT30;70041;46.088;18.268;2023-08-08T03:30:10;14.69;75.63
80676;SHT30;70041;46.088;18.268;2023-08-08T03:32:36;14.20;77.13
80676;SHT30;70041;46.088;18.268;2023-08-08T03:35:01;14.12;78.32
80676;SHT30;70041;46.088;18.268;2023-08-08T03:37:27;14.25;77.78
80676;SHT30;70041;46.088;18.268;2023-08-08T03:39:53;14.20;77.73
80676;SHT30;70041;46.088;18.268;2023-08-08T03:42:18;14.14;78.16
80676;SHT30;70041;46.088;18.268;2023-08-08T03:44:43;14.18;77.49
80676;SHT30;70041;46.088;18.268;2023-08-08T03:47:10;14.24;78.07
80676;SHT30;70041;46.088;18.268;2023-08-08T03:49:35;14.26;78.35
80676;SHT30;70041;46.088;18.268;2023-08-08T03:52:01;14.21;78.24
80676;SHT30;70041;46.088;18.268;2023-08-08T03:54:26;14.10;78.88
80676;SHT30;70041;46.088;18.268;2023-08-08T03:56:52;14.05;79.42
80676;SHT30;70041;46.088;18.268;2023-08-08T03:59:17;14.07;79.07
80676;SHT30;70041;46.088;18.268;2023-08-08T04:01:42;14.02;79.39
80676;SHT30;70041;46.088;18.268;2023-08-08T04:04:08;14.05;79.88
80676;SHT30;70041;46.088;18.268;2023-08-08T04:06:33;13.98;79.85
80676;SHT30;70041;46.088;18.268;2023-08-08T04:08:58;14.04;79.58
80676;SHT30;70041;46.088;18.268;2023-08-08T04:11:26;13.91;79.75
80676;SHT30;70041;46.088;18.268;2023-08-08T04:13:51;13.90;80.16
80676;SHT30;70041;46.088;18.268;2023-08-08T04:16:17;13.80;81.14
80676;SHT30;70041;46.088;18.268;2023-08-08T04:18:42;13.77;81.17
80676;SHT30;70041;46.088;18.268;2023-08-08T04:21:08;13.81;80.12
80676;SHT30;70041;46.088;18.268;2023-08-08T04:23:33;13.70;81.53
80676;SHT30;70041;46.088;18.268;2023-08-08T04:25:59;13.64;81.89
80676;SHT30;70041;46.088;18.268;2023-08-08T04:28:24;13.69;81.34
80676;SHT30;70041;46.088;18.268;2023-08-08T04:30:49;13.81;81.57
80676;SHT30;70041;46.088;18.268;2023-08-08T04:33:15;13.81;80.75
80676;SHT30;70041;46.088;18.268;2023-08-08T04:35:40;13.81;80.43
80676;SHT30;70041;46.088;18.268;2023-08-08T04:38:06;13.74;81.15
80676;SHT30;70041;46.088;18.268;2023-08-08T04:40:31;13.71;81.96
80676;SHT30;70041;46.088;18.268;2023-08-08T04:42:56;13.73;82.04
80676;SHT30;70041;46.088;18.268;2023-08-08T04:45:22;13.74;82.37
80676;SHT30;70041;46.088;18.268;2023-08-08T04:47:47;13.82;81.80
80676;SHT30;70041;46.088;18.268;2023-08-08T04:50:13;13.90;81.82
80676;SHT30;70041;46.088;18.268;2023-08-08T04:52:38;13.88;82.19
80676;SHT30;70041;46.088;18.268;2023-08-08T04:55:05;13.95;81.29
80676;SHT30;70041;46.088;18.268;2023-08-08T04:57:31;14.07;80.29
80676;SHT30;70041;46.088;18.268;2023-08-08T04:59:56;14.11;79.90
80676;SHT30;70041;46.088;18.268;2023-08-08T05:02:22;14.10;79.93
80676;SHT30;70041;46.088;18.268;2023-08-08T05:04:47;14.20;80.45
80676;SHT30;70041;46.088;18.268;2023-08-08T05:07:13;14.22;79.52
80676;SHT30;70041;46.088;18.268;2023-08-08T05:09:38;14.38;78.87
80676;SHT30;70041;46.088;18.268;2023-08-08T05:12:04;14.42;79.45
80676;SHT30;70041;46.088;18.268;2023-08-08T05:14:30;14.46;79.68
80676;SHT30;70041;46.088;18.268;2023-08-08T05:16:55;14.53;79.49
80676;SHT30;70041;46.088;18.268;2023-08-08T05:19:20;14.59;79.17
80676;SHT30;70041;46.088;18.268;2023-08-08T05:21:46;14.65;79.48
80676;SHT30;70041;46.088;18.268;2023-08-08T05:24:11;14.72;79.50
80676;SHT30;70041;46.088;18.268;2023-08-08T05:26:37;14.82;78.35
80676;SHT30;70041;46.088;18.268;2023-08-08T05:29:02;14.93;78.82
80676;SHT30;70041;46.088;18.268;2023-08-08T05:31:28;15.07;77.01
80676;SHT30;70041;46.088;18.268;2023-08-08T05:33:53;15.24;76.39
80676;SHT30;70041;46.088;18.268;2023-08-08T05:36:19;15.37;75.60
80676;SHT30;70041;46.088;18.268;2023-08-08T05:38:44;15.50;76.28
80676;SHT30;70041;46.088;18.268;2023-08-08T05:41:09;15.65;74.72
80676;SHT30;70041;46.088;18.268;2023-08-08T05:43:35;15.69;74.41
80676;SHT30;70041;46.088;18.268;2023-08-08T05:46:01;15.92;72.35
80676;SHT30;70041;46.088;18.268;2023-08-08T05:48:27;16.01;71.26
80676;SHT30;70041;46.088;18.268;2023-08-08T05:50:52;16.08;71.85
80676;SHT30;70041;46.088;18.268;2023-08-08T05:53:18;16.22;70.37
80676;SHT30;70041;46.088;18.268;2023-08-08T05:55:43;16.40;67.32
80676;SHT30;70041;46.088;18.268;2023-08-08T05:58:09;16.46;65.08
80676;SHT30;70041;46.088;18.268;2023-08-08T06:00:34;16.55;64.58
80676;SHT30;70041;46.088;18.268;2023-08-08T06:03:00;16.64;61.54
80676;SHT30;70041;46.088;18.268;2023-08-08T06:05:26;16.81;59.31
80676;SHT30;70041;46.088;18.268;2023-08-08T06:07:52;16.88;61.16
80676;SHT30;70041;46.088;18.268;2023-08-08T06:10:17;17.06;59.12
80676;SHT30;70041;46.088;18.268;2023-08-08T06:12:42;17.27;57.31
80676;SHT30;70041;46.088;18.268;2023-08-08T06:15:08;17.27;58.11
80676;SHT30;70041;46.088;18.268;2023-08-08T06:17:34;17.31;56.16
80676;SHT30;70041;46.088;18.268;2023-08-08T06:19:59;17.31;58.97
80676;SHT30;70041;46.088;18.268;2023-08-08T06:22:25;17.36;55.83
80676;SHT30;70041;46.088;18.268;2023-08-08T06:24:50;17.45;55.76
80676;SHT30;70041;46.088;18.268;2023-08-08T06:27:16;17.48;55.42
80676;SHT30;70041;46.088;18.268;2023-08-08T06:29:41;17.58;55.27
80676;SHT30;70041;46.088;18.268;2023-08-08T06:32:07;17.70;56.06
80676;SHT30;70041;46.088;18.268;2023-08-08T06:34:33;17.76;53.87
80676;SHT30;70041;46.088;18.268;2023-08-08T06:36:58;17.87;53.30
80676;SHT30;70041;46.088;18.268;2023-08-08T06:39:24;17.92;53.55
80676;SHT30;70041;46.088;18.268;2023-08-08T06:41:50;17.90;53.68
80676;SHT30;70041;46.088;18.268;2023-08-08T06:44:15;17.92;54.96
80676;SHT30;70041;46.088;18.268;2023-08-08T06:46:40;17.97;53.11
80676;SHT30;70041;46.088;18.268;2023-08-08T06:49:06;18.02;52.58
80676;SHT30;70041;46.088;18.268;2023-08-08T06:51:32;18.00;51.68
80676;SHT30;70041;46.088;18.268;2023-08-08T06:53:57;17.96;52.40
80676;SHT30;70041;46.088;18.268;2023-08-08T06:56:23;18.09;55.60
80676;SHT30;70041;46.088;18.268;2023-08-08T06:58:48;18.14;53.81
80676;SHT30;70041;46.088;18.268;2023-08-08T07:01:14;18.30;53.59
80676;SHT30;70041;46.088;18.268;2023-08-08T07:03:40;18.31;53.75
80676;SHT30;70041;46.088;18.268;2023-08-08T07:06:05;18.37;53.73
80676;SHT30;70041;46.088;18.268;2023-08-08T07:08:31;18.43;52.56
80676;SHT30;70041;46.088;18.268;2023-08-08T07:10:57;18.51;52.26
80676;SHT30;70041;46.088;18.268;2023-08-08T07:13:23;18.64;52.11
80676;SHT30;70041;46.088;18.268;2023-08-08T07:15:48;18.68;49.87
80676;SHT30;70041;46.088;18.268;2023-08-08T07:18:14;18.67;50.98
80676;SHT30;70041;46.088;18.268;2023-08-08T07:20:40;18.71;49.27
80676;SHT30;70041;46.088;18.268;2023-08-08T07:23:06;18.67;51.04
80676;SHT30;70041;46.088;18.268;2023-08-08T07:25:31;18.79;50.58
80676;SHT30;70041;46.088;18.268;2023-08-08T07:27:57;18.89;50.25
80676;SHT30;70041;46.088;18.268;2023-08-08T07:30:22;19.12;48.75
80676;SHT30;70041;46.088;18.268;2023-08-08T07:32:47;19.20;47.29
80676;SHT30;70041;46.088;18.268;2023-08-08T07:35:13;19.16;47.72
80676;SHT30;70041;46.088;18.268;2023-08-08T07:37:40;18.96;48.02
80676;SHT30;70041;46.088;18.268;2023-08-08T07:40:18;18.98;48.92
80676;SHT30;70041;46.088;18.268;2023-08-08T07:42:45;19.06;50.04
80676;SHT30;70041;46.088;18.268;2023-08-08T07:45:10;19.23;48.96
80676;SHT30;70041;46.088;18.268;2023-08-08T07:47:36;19.32;48.90
80676;SHT30;70041;46.088;18.268;2023-08-08T07:50:01;19.25;48.47
80676;SHT30;70041;46.088;18.268;2023-08-08T07:52:27;19.26;49.05
80676;SHT30;70041;46.088;18.268;2023-08-08T07:54:53;19.29;48.26
80676;SHT30;70041;46.088;18.268;2023-08-08T07:57:18;19.42;48.01
80676;SHT30;70041;46.088;18.268;2023-08-08T07:59:44;19.49;48.23
80676;SHT30;70041;46.088;18.268;2023-08-08T08:02:09;19.52;49.71
80676;SHT30;70041;46.088;18.268;2023-08-08T08:04:34;19.66;47.29
80676;SHT30;70041;46.088;18.268;2023-08-08T08:07:00;19.74;46.89
80676;SHT30;70041;46.088;18.268;2023-08-08T08:09:26;19.66;46.81
80676;SHT30;70041;46.088;18.268;2023-08-08T08:11:51;19.66;46.54
80676;SHT30;70041;46.088;18.268;2023-08-08T08:14:17;19.69;47.48
80676;SHT30;70041;46.088;18.268;2023-08-08T08:16:42;19.81;46.96
80676;SHT30;70041;46.088;18.268;2023-08-08T08:19:08;19.69;46.96
80676;SHT30;70041;46.088;18.268;2023-08-08T08:21:33;19.76;47.10
80676;SHT30;70041;46.088;18.268;2023-08-08T08:23:59;19.80;47.75
80676;SHT30;70041;46.088;18.268;2023-08-08T08:26:25;19.88;48.71
80676;SHT30;70041;46.088;18.268;2023-08-08T08:28:50;20.03;46.52
80676;SHT30;70041;46.088;18.268;2023-08-08T08:31:15;20.15;45.54
80676;SHT30;70041;46.088;18.268;2023-08-08T08:33:41;20.22;49.68
80676;SHT30;70041;46.088;18.268;2023-08-08T08:36:06;20.39;46.67
80676;SHT30;70041;46.088;18.268;2023-08-08T08:38:32;20.53;48.42
80676;SHT30;70041;46.088;18.268;2023-08-08T08:40:58;20.52;49.23
80676;SHT30;70041;46.088;18.268;2023-08-08T08:43:24;20.42;51.04
80676;SHT30;70041;46.088;18.268;2023-08-08T08:45:52;20.10;50.52
80676;SHT30;70041;46.088;18.268;2023-08-08T08:48:18;20.13;49.36
80676;SHT30;70041;46.088;18.268;2023-08-08T08:50:47;20.31;48.92
80676;SHT30;70041;46.088;18.268;2023-08-08T08:53:13;20.42;50.36
80676;SHT30;70041;46.088;18.268;2023-08-08T08:55:40;20.65;49.80
80676;SHT30;70041;46.088;18.268;2023-08-08T08:58:06;20.65;48.86
80676;SHT30;70041;46.088;18.268;2023-08-08T09:00:31;20.78;46.95
80676;SHT30;70041;46.088;18.268;2023-08-08T09:02:58;20.78;47.39
80676;SHT30;70041;46.088;18.268;2023-08-08T09:05:25;20.79;48.16
80676;SHT30;70041;46.088;18.268;2023-08-08T09:07:50;20.96;47.70
80676;SHT30;70041;46.088;18.268;2023-08-08T09:10:17;21.20;47.77
80676;SHT30;70041;46.088;18.268;2023-08-08T09:12:43;21.33;51.55
80676;SHT30;70041;46.088;18.268;2023-08-08T09:15:10;21.73;47.96
80676;SHT30;70041;46.088;18.268;2023-08-08T09:17:40;21.55;48.79
80676;SHT30;70041;46.088;18.268;2023-08-08T09:20:06;21.34;47.31
80676;SHT30;70041;46.088;18.268;2023-08-08T09:22:32;21.33;47.93
80676;SHT30;70041;46.088;18.268;2023-08-08T09:24:57;21.31;48.63
80676;SHT30;70041;46.088;18.268;2023-08-08T09:27:23;21.17;47.34
80676;SHT30;70041;46.088;18.268;2023-08-08T09:29:48;21.41;47.43
80676;SHT30;70041;46.088;18.268;2023-08-08T09:32:14;21.31;46.63
80676;SHT30;70041;46.088;18.268;2023-08-08T09:34:41;21.13;46.93
80676;SHT30;70041;46.088;18.268;2023-08-08T09:37:08;21.14;46.80
80676;SHT30;70041;46.088;18.268;2023-08-08T09:39:33;21.07;47.58
80676;SHT30;70041;46.088;18.268;2023-08-08T09:42:01;20.96;47.92
80676;SHT30;70041;46.088;18.268;2023-08-08T09:44:28;21.07;48.28
80676;SHT30;70041;46.088;18.268;2023-08-08T09:46:55;21.13;48.57
80676;SHT30;70041;46.088;18.268;2023-08-08T09:49:21;21.17;46.74
80676;SHT30;70041;46.088;18.268;2023-08-08T09:51:48;21.24;46.48
80676;SHT30;70041;46.088;18.268;2023-08-08T09:54:14;21.43;45.48
80676;SHT30;70041;46.088;18.268;2023-08-08T09:56:40;21.53;46.11
80676;SHT30;70041;46.088;18.268;2023-08-08T09:59:07;21.51;42.08
80676;SHT30;70041;46.088;18.268;2023-08-08T10:01:34;21.57;40.92
80676;SHT30;70041;46.088;18.268;2023-08-08T10:04:00;21.81;43.68
80676;SHT30;70041;46.088;18.268;2023-08-08T10:06:26;21.75;43.45
80676;SHT30;70041;46.088;18.268;2023-08-08T10:08:52;21.90;44.11
80676;SHT30;70041;46.088;18.268;2023-08-08T10:11:18;21.91;43.38
80676;SHT30;70041;46.088;18.268;2023-08-08T10:13:49;21.49;44.08
80676;SHT30;70041;46.088;18.268;2023-08-08T10:16:16;21.60;44.18
80676;SHT30;70041;46.088;18.268;2023-08-08T10:18:44;21.67;44.99
80676;SHT30;70041;46.088;18.268;2023-08-08T10:21:11;21.77;44.04
80676;SHT30;70041;46.088;18.268;2023-08-08T10:23:39;21.62;45.28
80676;SHT30;70041;46.088;18.268;2023-08-08T10:26:05;21.55;46.35
80676;SHT30;70041;46.088;18.268;2023-08-08T10:28:34;21.27;46.39
80676;SHT30;70041;46.088;18.268;2023-08-08T10:31:01;21.33;46.60
80676;SHT30;70041;46.088;18.268;2023-08-08T10:33:41;21.62;45.33
80676;SHT30;70041;46.088;18.268;2023-08-08T10:36:08;21.88;45.19
80676;SHT30;70041;46.088;18.268;2023-08-08T10:38:48;22.39;44.52
80676;SHT30;70041;46.088;18.268;2023-08-08T10:41:19;23.43;44.68
80676;SHT30;70041;46.088;18.268;2023-08-08T10:43:50;23.14;42.26
80676;SHT30;70041;46.088;18.268;2023-08-08T10:46:30;23.90;42.90
80676;SHT30;70041;46.088;18.268;2023-08-08T10:49:00;25.37;37.09
80676;SHT30;70041;46.088;18.268;2023-08-08T10:51:35;24.90;38.10
80676;SHT30;70041;46.088;18.268;2023-08-08T10:54:22;24.53;41.37
80676;SHT30;70041;46.088;18.268;2023-08-08T10:56:54;23.98;41.00
80676;SHT30;70041;46.088;18.268;2023-08-08T10:59:40;23.53;42.72
80676;SHT30;70041;46.088;18.268;2023-08-08T11:02:06;23.37;41.92
80676;SHT30;70041;46.088;18.268;2023-08-08T11:04:33;23.44;41.95
80676;SHT30;70041;46.088;18.268;2023-08-08T11:07:00;23.81;38.28
80676;SHT30;70041;46.088;18.268;2023-08-08T11:09:25;23.95;40.74
80676;SHT30;70041;46.088;18.268;2023-08-08T11:11:52;23.66;39.82
80676;SHT30;70041;46.088;18.268;2023-08-08T11:14:19;23.85;38.19
80676;SHT30;70041;46.088;18.268;2023-08-08T11:16:47;23.84;40.01
80676;SHT30;70041;46.088;18.268;2023-08-08T11:19:12;23.65;41.14
80676;SHT30;70041;46.088;18.268;2023-08-08T11:21:40;23.28;43.15
80676;SHT30;70041;46.088;18.268;2023-08-08T11:24:06;23.15;43.39
80676;SHT30;70041;46.088;18.268;2023-08-08T11:26:33;24.02;42.08
80676;SHT30;70041;46.088;18.268;2023-08-08T11:29:00;23.61;42.89
80676;SHT30;70041;46.088;18.268;2023-08-08T11:31:26;22.97;43.75
80676;SHT30;70041;46.088;18.268;2023-08-08T11:33:55;22.67;45.85
80676;SHT30;70041;46.088;18.268;2023-08-08T11:36:22;22.53;46.24
80676;SHT30;70041;46.088;18.268;2023-08-08T11:38:48;22.46;46.05
80676;SHT30;70041;46.088;18.268;2023-08-08T11:41:15;22.36;46.28
80676;SHT30;70041;46.088;18.268;2023-08-08T11:43:41;22.26;45.76
80676;SHT30;70041;46.088;18.268;2023-08-08T11:46:12;22.18;45.68
80676;SHT30;70041;46.088;18.268;2023-08-08T11:48:38;22.04;48.99
80676;SHT30;70041;46.088;18.268;2023-08-08T11:51:04;22.05;50.46
80676;SHT30;70041;46.088;18.268;2023-08-08T11:53:29;22.12;48.29
80676;SHT30;70041;46.088;18.268;2023-08-08T11:55:55;22.21;46.54
80676;SHT30;70041;46.088;18.268;2023-08-08T11:58:24;22.39;46.67
80676;SHT30;70041;46.088;18.268;2023-08-08T12:00:50;22.49;47.73
80676;SHT30;70041;46.088;18.268;2023-08-08T12:03:18;22.60;45.57
80676;SHT30;70041;46.088;18.268;2023-08-08T12:05:47;22.79;45.26
80676;SHT30;70041;46.088;18.268;2023-08-08T12:08:13;22.92;45.07
80676;SHT30;70041;46.088;18.268;2023-08-08T12:10:47;22.87;44.56
80676;SHT30;70041;46.088;18.268;2023-08-08T12:13:23;22.82;44.46
80676;SHT30;70041;46.088;18.268;2023-08-08T12:15:52;22.93;45.52
80676;SHT30;70041;46.088;18.268;2023-08-08T12:18:18;23.24;46.26
80676;SHT30;70041;46.088;18.268;2023-08-08T12:20:44;23.35;46.55
80676;SHT30;70041;46.088;18.268;2023-08-08T12:23:09;23.75;45.55
80676;SHT30;70041;46.088;18.268;2023-08-08T12:25:35;23.75;45.13
80676;SHT30;70041;46.088;18.268;2023-08-08T12:28:02;24.09;46.15
80676;SHT30;70041;46.088;18.268;2023-08-08T12:30:27;24.41;43.74
80676;SHT30;70041;46.088;18.268;2023-08-08T12:32:53;24.68;42.01
80676;SHT30;70041;46.088;18.268;2023-08-08T12:35:19;25.21;40.53
80676;SHT30;70041;46.088;18.268;2023-08-08T12:37:46;25.79;39.49
80676;SHT30;70041;46.088;18.268;2023-08-08T12:40:12;26.68;37.95
80676;SHT30;70041;46.088;18.268;2023-08-08T12:42:37;26.52;38.25
80676;SHT30;70041;46.088;18.268;2023-08-08T12:45:03;25.38;40.14
80676;SHT30;70041;46.088;18.268;2023-08-08T12:47:29;24.57;39.93
80676;SHT30;70041;46.088;18.268;2023-08-08T12:49:54;24.19;41.39
80676;SHT30;70041;46.088;18.268;2023-08-08T12:52:20;24.47;41.54
80676;SHT30;70041;46.088;18.268;2023-08-08T12:54:45;25.11;39.88
80676;SHT30;70041;46.088;18.268;2023-08-08T12:57:11;25.08;39.64
80676;SHT30;70041;46.088;18.268;2023-08-08T12:59:36;24.86;40.30
80676;SHT30;70041;46.088;18.268;2023-08-08T13:02:02;24.84;41.55
80676;SHT30;70041;46.088;18.268;2023-08-08T13:04:27;24.30;41.41
80676;SHT30;70041;46.088;18.268;2023-08-08T13:06:53;24.36;43.88
80676;SHT30;70041;46.088;18.268;2023-08-08T13:09:19;26.71;38.78
80676;SHT30;70041;46.088;18.268;2023-08-08T13:11:45;26.88;38.44
80676;SHT30;70041;46.088;18.268;2023-08-08T13:14:10;26.00;37.82
80676;SHT30;70041;46.088;18.268;2023-08-08T13:16:36;26.98;34.99
80676;SHT30;70041;46.088;18.268;2023-08-08T13:19:02;28.40;32.68
80676;SHT30;70041;46.088;18.268;2023-08-08T13:21:28;29.73;30.15
80676;SHT30;70041;46.088;18.268;2023-08-08T13:23:54;30.78;28.08
80676;SHT30;70041;46.088;18.268;2023-08-08T13:26:19;30.21;30.03
80676;SHT30;70041;46.088;18.268;2023-08-08T13:28:44;30.72;29.26
80676;SHT30;70041;46.088;18.268;2023-08-08T13:31:10;31.50;29.76
80676;SHT30;70041;46.088;18.268;2023-08-08T13:33:35;31.84;27.59
80676;SHT30;70041;46.088;18.268;2023-08-08T13:36:01;31.37;28.15
80676;SHT30;70041;46.088;18.268;2023-08-08T13:38:27;32.44;27.67
80676;SHT30;70041;46.088;18.268;2023-08-08T13:40:52;32.74;25.20
80676;SHT30;70041;46.088;18.268;2023-08-08T13:43:18;32.26;25.79
80676;SHT30;70041;46.088;18.268;2023-08-08T13:45:44;32.01;26.26
80676;SHT30;70041;46.088;18.268;2023-08-08T13:48:09;32.44;27.30
80676;SHT30;70041;46.088;18.268;2023-08-08T13:50:35;31.88;26.43
80676;SHT30;70041;46.088;18.268;2023-08-08T13:53:00;31.24;26.74
80676;SHT30;70041;46.088;18.268;2023-08-08T13:55:26;31.33;27.28
80676;SHT30;70041;46.088;18.268;2023-08-08T13:57:52;32.35;25.77
80676;SHT30;70041;46.088;18.268;2023-08-08T14:00:20;32.49;26.64
80676;SHT30;70041;46.088;18.268;2023-08-08T14:02:45;32.28;26.60
80676;SHT30;70041;46.088;18.268;2023-08-08T14:05:11;32.04;26.74
80676;SHT30;70041;46.088;18.268;2023-08-08T14:07:36;31.20;28.69
80676;SHT30;70041;46.088;18.268;2023-08-08T14:10:02;31.54;27.26
80676;SHT30;70041;46.088;18.268;2023-08-08T14:12:29;30.65;28.66
80676;SHT30;70041;46.088;18.268;2023-08-08T14:14:55;29.92;30.29
80676;SHT30;70041;46.088;18.268;2023-08-08T14:17:21;30.19;29.33
80676;SHT30;70041;46.088;18.268;2023-08-08T14:19:46;29.96;28.36
80676;SHT30;70041;46.088;18.268;2023-08-08T14:22:12;29.36;29.78
80676;SHT30;70041;46.088;18.268;2023-08-08T14:24:37;28.89;30.85
80676;SHT30;70041;46.088;18.268;2023-08-08T14:27:03;28.28;32.12
80676;SHT30;70041;46.088;18.268;2023-08-08T14:29:28;27.74;33.74
80676;SHT30;70041;46.088;18.268;2023-08-08T14:31:54;27.74;33.61
80676;SHT30;70041;46.088;18.268;2023-08-08T14:34:31;27.52;34.19
80676;SHT30;70041;46.088;18.268;2023-08-08T14:36:58;27.73;31.84
80676;SHT30;70041;46.088;18.268;2023-08-08T14:39:24;27.50;32.99
80676;SHT30;70041;46.088;18.268;2023-08-08T14:41:50;28.17;32.08
80676;SHT30;70041;46.088;18.268;2023-08-08T14:44:16;28.52;32.26
80676;SHT30;70041;46.088;18.268;2023-08-08T14:46:41;28.64;29.88
80676;SHT30;70041;46.088;18.268;2023-08-08T14:49:06;29.82;28.78
80676;SHT30;70041;46.088;18.268;2023-08-08T14:51:32;30.00;27.81
80676;SHT30;70041;46.088;18.268;2023-08-08T14:53:57;31.42;27.31
80676;SHT30;70041;46.088;18.268;2023-08-08T14:56:23;31.37;25.50
80676;SHT30;70041;46.088;18.268;2023-08-08T14:58:48;31.01;25.76
80676;SHT30;70041;46.088;18.268;2023-08-08T15:01:15;31.23;26.36
80676;SHT30;70041;46.088;18.268;2023-08-08T15:03:40;31.29;27.59
80676;SHT30;70041;46.088;18.268;2023-08-08T15:06:06;30.73;28.16
80676;SHT30;70041;46.088;18.268;2023-08-08T15:08:32;30.75;28.37